sensor_id;sensor_type;location;lat;lon;timestamp;P1;durP1;ratioP1;P2;durP2;ratioP2
76536;SDS011;65381;51.254;15.592;2023-06-10T00:00:28;0.00;;;0.00;;
76536;SDS011;65381;51.254;15.592;2023-06-10T00:03:18;0.05;;;0.05;;
76536;SDS011;65381;51.254;15.592;2023-06-10T00:05:47;0.70;;;0.52;;
76536;SDS011;65381;51.254;15.592;2023-06-10T00:08:15;0.55;;;0.45;;
76536;SDS011;65381;51.254;15.592;2023-06-10T00:10:46;0.00;;;0.00;;
76536;SDS011;65381;51.254;15.592;2023-06-10T00:13:14;0.52;;;0.35;;
76536;SDS011;65381;51.254;15.592;2023-06-10T00:15:43;0.55;;;0.55;;
76536;SDS011;65381;51.254;15.592;2023-06-10T00:18:11;0.30;;;0.30;;
76536;SDS011;65381;51.254;15.592;2023-06-10T00:20:39;1.85;;;0.73;;
76536;SDS011;65381;51.254;15.592;2023-06-10T00:23:07;0.30;;;0.30;;
76536;SDS011;65381;51.254;15.592;2023-06-10T00:25:36;0.65;;;0.65;;
76536;SDS011;65381;51.254;15.592;2023-06-10T00:28:04;2.55;;;1.30;;
76536;SDS011;65381;51.254;15.592;2023-06-10T00:30:32;1.17;;;0.68;;
76536;SDS011;65381;51.254;15.592;2023-06-10T00:33:00;0.10;;;0.10;;
76536;SDS011;65381;51.254;15.592;2023-06-10T00:35:28;0.32;;;0.28;;
76536;SDS011;65381;51.254;15.592;2023-06-10T00:37:56;0.80;;;0.63;;
76536;SDS011;65381;51.254;15.592;2023-06-10T00:40:24;0.28;;;0.20;;
76536;SDS011;65381;51.254;15.592;2023-06-10T00:42:52;0.43;;;0.10;;
76536;SDS011;65381;51.254;15.592;2023-06-10T00:45:21;0.22;;;0.22;;
76536;SDS011;65381;51.254;15.592;2023-06-10T00:47:48;1.15;;;0.30;;
76536;SDS011;65381;51.254;15.592;2023-06-10T00:50:16;1.02;;;0.47;;
76536;SDS011;65381;51.254;15.592;2023-06-10T00:52:44;0.22;;;0.20;;
76536;SDS011;65381;51.254;15.592;2023-06-10T00:57:45;0.15;;;0.15;;
76536;SDS011;65381;51.254;15.592;2023-06-10T01:00:15;0.20;;;0.10;;
76536;SDS011;65381;51.254;15.592;2023-06-10T01:02:43;0.13;;;0.10;;
76536;SDS011;65381;51.254;15.592;2023-06-10T01:05:11;0.08;;;0.08;;
76536;SDS011;65381;51.254;15.592;2023-06-10T01:07:51;0.17;;;0.17;;
76536;SDS011;65381;51.254;15.592;2023-06-10T01:10:29;0.88;;;0.88;;
76536;SDS011;65381;51.254;15.592;2023-06-10T01:13:30;0.32;;;0.20;;
76536;SDS011;65381;51.254;15.592;2023-06-10T01:15:59;0.00;;;0.00;;
76536;SDS011;65381;51.254;15.592;2023-06-10T01:18:30;0.20;;;0.17;;
76536;SDS011;65381;51.254;15.592;2023-06-10T01:20:59;0.32;;;0.32;;
76536;SDS011;65381;51.254;15.592;2023-06-10T01:23:26;1.98;;;0.88;;
76536;SDS011;65381;51.254;15.592;2023-06-10T01:33:47;0.00;;;0.00;;
76536;SDS011;65381;51.254;15.592;2023-06-10T01:36:19;0.03;;;0.03;;
76536;SDS011;65381;51.254;15.592;2023-06-10T01:38:50;0.13;;;0.13;;
76536;SDS011;65381;51.254;15.592;2023-06-10T01:41:21;0.20;;;0.20;;
76536;SDS011;65381;51.254;15.592;2023-06-10T01:43:53;0.10;;;0.10;;
76536;SDS011;65381;51.254;15.592;2023-06-10T01:46:22;0.10;;;0.10;;
76536;SDS011;65381;51.254;15.592;2023-06-10T01:48:50;0.00;;;0.00;;
76536;SDS011;65381;51.254;15.592;2023-06-10T01:51:18;0.00;;;0.00;;
76536;SDS011;65381;51.254;15.592;2023-06-10T01:53:46;1.67;;;0.93;;
76536;SDS011;65381;51.254;15.592;2023-06-10T01:56:14;0.10;;;0.10;;
76536;SDS011;65381;51.254;15.592;2023-06-10T01:58:45;0.15;;;0.05;;
76536;SDS011;65381;51.254;15.592;2023-06-10T02:01:14;0.10;;;0.10;;
76536;SDS011;65381;51.254;15.592;2023-06-10T02:03:42;0.40;;;0.40;;
76536;SDS011;65381;51.254;15.592;2023-06-10T02:06:11;1.38;;;1.23;;
76536;SDS011;65381;51.254;15.592;2023-06-10T02:08:39;0.00;;;0.00;;
76536;SDS011;65381;51.254;15.592;2023-06-10T02:11:07;0.05;;;0.05;;
76536;SDS011;65381;51.254;15.592;2023-06-10T02:13:35;0.35;;;0.35;;
76536;SDS011;65381;51.254;15.592;2023-06-10T02:16:03;0.70;;;0.63;;
76536;SDS011;65381;51.254;15.592;2023-06-10T02:18:32;3.42;;;1.38;;
76536;SDS011;65381;51.254;15.592;2023-06-10T02:21:01;0.60;;;0.22;;
76536;SDS011;65381;51.254;15.592;2023-06-10T02:23:29;0.22;;;0.22;;
76536;SDS011;65381;51.254;15.592;2023-06-10T02:25:57;1.00;;;0.65;;
76536;SDS011;65381;51.254;15.592;2023-06-10T02:28:24;0.52;;;0.52;;
76536;SDS011;65381;51.254;15.592;2023-06-10T02:30:53;0.00;;;0.00;;
76536;SDS011;65381;51.254;15.592;2023-06-10T02:33:20;0.63;;;0.63;;
76536;SDS011;65381;51.254;15.592;2023-06-10T02:35:49;0.00;;;0.00;;
76536;SDS011;65381;51.254;15.592;2023-06-10T02:38:17;0.00;;;0.00;;
76536;SDS011;65381;51.254;15.592;2023-06-10T02:40:45;0.50;;;0.20;;
76536;SDS011;65381;51.254;15.592;2023-06-10T02:43:13;0.10;;;0.10;;
76536;SDS011;65381;51.254;15.592;2023-06-10T02:45:42;0.57;;;0.30;;
76536;SDS011;65381;51.254;15.592;2023-06-10T02:48:10;0.00;;;0.00;;
76536;SDS011;65381;51.254;15.592;2023-06-10T02:50:41;0.57;;;0.57;;
76536;SDS011;65381;51.254;15.592;2023-06-10T02:53:16;0.35;;;0.35;;
76536;SDS011;65381;51.254;15.592;2023-06-10T02:55:50;0.00;;;0.00;;
76536;SDS011;65381;51.254;15.592;2023-06-10T02:58:19;0.00;;;0.00;;
76536;SDS011;65381;51.254;15.592;2023-06-10T03:00:48;0.00;;;0.00;;
76536;SDS011;65381;51.254;15.592;2023-06-10T03:03:16;0.20;;;0.20;;
76536;SDS011;65381;51.254;15.592;2023-06-10T03:05:55;0.08;;;0.08;;
76536;SDS011;65381;51.254;15.592;2023-06-10T03:08:24;1.67;;;0.93;;
76536;SDS011;65381;51.254;15.592;2023-06-10T03:10:53;0.00;;;0.00;;
76536;SDS011;65381;51.254;15.592;2023-06-10T03:13:20;0.08;;;0.08;;
76536;SDS011;65381;51.254;15.592;2023-06-10T03:15:49;0.00;;;0.00;;
76536;SDS011;65381;51.254;15.592;2023-06-10T03:20:48;0.13;;;0.13;;
76536;SDS011;65381;51.254;15.592;2023-06-10T03:23:16;0.00;;;0.00;;
76536;SDS011;65381;51.254;15.592;2023-06-10T03:25:46;0.00;;;0.00;;
76536;SDS011;65381;51.254;15.592;2023-06-10T03:28:18;0.45;;;0.45;;
76536;SDS011;65381;51.254;15.592;2023-06-10T03:30:46;0.00;;;0.00;;
76536;SDS011;65381;51.254;15.592;2023-06-10T03:33:14;0.32;;;0.28;;
76536;SDS011;65381;51.254;15.592;2023-06-10T03:35:44;1.17;;;1.13;;
76536;SDS011;65381;51.254;15.592;2023-06-10T03:38:13;0.00;;;0.00;;
76536;SDS011;65381;51.254;15.592;2023-06-10T03:40:42;0.52;;;0.52;;
76536;SDS011;65381;51.254;15.592;2023-06-10T03:43:09;0.10;;;0.10;;
76536;SDS011;65381;51.254;15.592;2023-06-10T03:45:38;0.00;;;0.00;;
76536;SDS011;65381;51.254;15.592;2023-06-10T03:48:06;0.10;;;0.10;;
76536;SDS011;65381;51.254;15.592;2023-06-10T03:50:43;0.00;;;0.00;;
76536;SDS011;65381;51.254;15.592;2023-06-10T03:53:11;0.00;;;0.00;;
76536;SDS011;65381;51.254;15.592;2023-06-10T03:55:41;0.55;;;0.20;;
76536;SDS011;65381;51.254;15.592;2023-06-10T03:58:09;0.43;;;0.43;;
76536;SDS011;65381;51.254;15.592;2023-06-10T04:00:41;0.00;;;0.00;;
76536;SDS011;65381;51.254;15.592;2023-06-10T04:03:09;5.00;;;0.50;;
76536;SDS011;65381;51.254;15.592;2023-06-10T04:05:49;0.70;;;0.25;;
76536;SDS011;65381;51.254;15.592;2023-06-10T04:08:17;0.10;;;0.10;;
76536;SDS011;65381;51.254;15.592;2023-06-10T04:10:47;0.50;;;0.40;;
76536;SDS011;65381;51.254;15.592;2023-06-10T04:13:15;0.03;;;0.03;;
76536;SDS011;65381;51.254;15.592;2023-06-10T04:16:01;0.73;;;0.32;;
76536;SDS011;65381;51.254;15.592;2023-06-10T04:18:29;0.00;;;0.00;;
76536;SDS011;65381;51.254;15.592;2023-06-10T04:21:02;0.30;;;0.30;;
76536;SDS011;65381;51.254;15.592;2023-06-10T04:23:31;0.80;;;0.47;;
76536;SDS011;65381;51.254;15.592;2023-06-10T04:26:00;0.20;;;0.20;;
76536;SDS011;65381;51.254;15.592;2023-06-10T04:28:28;0.57;;;0.55;;
76536;SDS011;65381;51.254;15.592;2023-06-10T04:30:59;0.70;;;0.38;;
76536;SDS011;65381;51.254;15.592;2023-06-10T04:33:27;0.73;;;0.20;;
76536;SDS011;65381;51.254;15.592;2023-06-10T04:35:56;0.63;;;0.63;;
76536;SDS011;65381;51.254;15.592;2023-06-10T04:38:26;1.00;;;0.57;;
76536;SDS011;65381;51.254;15.592;2023-06-10T04:40:54;9.40;;;0.65;;
76536;SDS011;65381;51.254;15.592;2023-06-10T04:43:22;0.40;;;0.28;;
76536;SDS011;65381;51.254;15.592;2023-06-10T04:45:51;0.57;;;0.50;;
76536;SDS011;65381;51.254;15.592;2023-06-10T04:48:19;2.65;;;0.57;;
76536;SDS011;65381;51.254;15.592;2023-06-10T04:50:47;0.22;;;0.22;;
76536;SDS011;65381;51.254;15.592;2023-06-10T04:53:15;1.70;;;1.15;;
76536;SDS011;65381;51.254;15.592;2023-06-10T04:55:46;0.50;;;0.50;;
76536;SDS011;65381;51.254;15.592;2023-06-10T04:58:15;1.65;;;1.35;;
76536;SDS011;65381;51.254;15.592;2023-06-10T05:00:43;0.57;;;0.57;;
76536;SDS011;65381;51.254;15.592;2023-06-10T05:03:10;3.50;;;2.00;;
76536;SDS011;65381;51.254;15.592;2023-06-10T05:05:39;0.77;;;0.30;;
76536;SDS011;65381;51.254;15.592;2023-06-10T05:08:06;1.65;;;0.82;;
76536;SDS011;65381;51.254;15.592;2023-06-10T05:10:35;2.10;;;0.80;;
76536;SDS011;65381;51.254;15.592;2023-06-10T05:13:03;1.23;;;0.85;;
76536;SDS011;65381;51.254;15.592;2023-06-10T05:15:31;0.50;;;0.50;;
76536;SDS011;65381;51.254;15.592;2023-06-10T05:17:59;1.38;;;0.65;;
76536;SDS011;65381;51.254;15.592;2023-06-10T05:20:30;1.27;;;1.17;;
76536;SDS011;65381;51.254;15.592;2023-06-10T05:22:58;1.77;;;1.58;;
76536;SDS011;65381;51.254;15.592;2023-06-10T05:25:26;3.28;;;2.28;;
76536;SDS011;65381;51.254;15.592;2023-06-10T05:27:57;1.73;;;1.40;;
76536;SDS011;65381;51.254;15.592;2023-06-10T05:30:25;1.20;;;1.02;;
76536;SDS011;65381;51.254;15.592;2023-06-10T05:32:54;1.90;;;0.75;;
76536;SDS011;65381;51.254;15.592;2023-06-10T05:35:23;2.70;;;0.85;;
76536;SDS011;65381;51.254;15.592;2023-06-10T05:37:51;2.25;;;1.33;;
76536;SDS011;65381;51.254;15.592;2023-06-10T05:40:19;1.52;;;1.42;;
76536;SDS011;65381;51.254;15.592;2023-06-10T05:42:47;1.60;;;0.88;;
76536;SDS011;65381;51.254;15.592;2023-06-10T05:45:15;1.65;;;0.90;;
76536;SDS011;65381;51.254;15.592;2023-06-10T05:47:43;1.67;;;1.58;;
76536;SDS011;65381;51.254;15.592;2023-06-10T05:50:11;2.00;;;1.38;;
76536;SDS011;65381;51.254;15.592;2023-06-10T05:52:39;0.85;;;0.73;;
76536;SDS011;65381;51.254;15.592;2023-06-10T05:55:10;1.08;;;0.60;;
76536;SDS011;65381;51.254;15.592;2023-06-10T05:57:41;1.30;;;0.60;;
76536;SDS011;65381;51.254;15.592;2023-06-10T06:00:10;0.98;;;0.82;;
76536;SDS011;65381;51.254;15.592;2023-06-10T06:02:38;1.05;;;0.63;;
76536;SDS011;65381;51.254;15.592;2023-06-10T06:05:07;3.30;;;1.25;;
76536;SDS011;65381;51.254;15.592;2023-06-10T06:07:35;0.10;;;0.10;;
76536;SDS011;65381;51.254;15.592;2023-06-10T06:10:04;2.55;;;1.00;;
76536;SDS011;65381;51.254;15.592;2023-06-10T06:12:32;2.08;;;1.15;;
76536;SDS011;65381;51.254;15.592;2023-06-10T06:15:00;0.98;;;0.68;;
76536;SDS011;65381;51.254;15.592;2023-06-10T06:17:28;1.52;;;1.42;;
76536;SDS011;65381;51.254;15.592;2023-06-10T06:19:56;1.55;;;1.08;;
76536;SDS011;65381;51.254;15.592;2023-06-10T06:22:24;1.15;;;0.75;;
76536;SDS011;65381;51.254;15.592;2023-06-10T06:24:52;0.93;;;0.88;;
76536;SDS011;65381;51.254;15.592;2023-06-10T06:27:20;1.55;;;0.77;;
76536;SDS011;65381;51.254;15.592;2023-06-10T06:29:48;1.98;;;1.55;;
76536;SDS011;65381;51.254;15.592;2023-06-10T06:32:18;2.28;;;1.60;;
76536;SDS011;65381;51.254;15.592;2023-06-10T06:34:46;2.13;;;0.73;;
76536;SDS011;65381;51.254;15.592;2023-06-10T06:37:16;1.92;;;1.75;;
76536;SDS011;65381;51.254;15.592;2023-06-10T06:39:45;1.00;;;0.90;;
76536;SDS011;65381;51.254;15.592;2023-06-10T06:42:12;1.98;;;1.33;;
76536;SDS011;65381;51.254;15.592;2023-06-10T06:44:51;1.08;;;1.02;;
76536;SDS011;65381;51.254;15.592;2023-06-10T06:47:18;1.23;;;0.93;;
76536;SDS011;65381;51.254;15.592;2023-06-10T06:49:47;2.47;;;1.27;;
76536;SDS011;65381;51.254;15.592;2023-06-10T06:52:15;0.80;;;0.60;;
76536;SDS011;65381;51.254;15.592;2023-06-10T06:54:44;4.68;;;3.17;;
76536;SDS011;65381;51.254;15.592;2023-06-10T06:57:12;0.95;;;0.50;;
76536;SDS011;65381;51.254;15.592;2023-06-10T06:59:40;2.55;;;1.10;;
76536;SDS011;65381;51.254;15.592;2023-06-10T07:02:08;1.60;;;0.82;;
76536;SDS011;65381;51.254;15.592;2023-06-10T07:04:36;1.80;;;0.85;;
76536;SDS011;65381;51.254;15.592;2023-06-10T07:07:04;4.60;;;2.20;;
76536;SDS011;65381;51.254;15.592;2023-06-10T07:12:02;0.80;;;0.80;;
76536;SDS011;65381;51.254;15.592;2023-06-10T07:14:30;1.27;;;0.55;;
76536;SDS011;65381;51.254;15.592;2023-06-10T07:16:58;1.35;;;0.70;;
76536;SDS011;65381;51.254;15.592;2023-06-10T07:19:26;3.50;;;2.40;;
76536;SDS011;65381;51.254;15.592;2023-06-10T07:21:54;0.10;;;0.10;;
76536;SDS011;65381;51.254;15.592;2023-06-10T07:24:23;2.80;;;1.42;;
76536;SDS011;65381;51.254;15.592;2023-06-10T07:26:50;4.03;;;2.72;;
76536;SDS011;65381;51.254;15.592;2023-06-10T07:29:18;2.50;;;0.20;;
76536;SDS011;65381;51.254;15.592;2023-06-10T07:31:46;2.35;;;1.58;;
76536;SDS011;65381;51.254;15.592;2023-06-10T07:34:14;7.80;;;2.50;;
76536;SDS011;65381;51.254;15.592;2023-06-10T07:36:42;1.25;;;1.15;;
76536;SDS011;65381;51.254;15.592;2023-06-10T07:39:10;2.25;;;2.05;;
76536;SDS011;65381;51.254;15.592;2023-06-10T07:41:38;3.72;;;3.03;;
76536;SDS011;65381;51.254;15.592;2023-06-10T07:44:06;4.13;;;1.63;;
76536;SDS011;65381;51.254;15.592;2023-06-10T07:46:34;1.90;;;1.77;;
76536;SDS011;65381;51.254;15.592;2023-06-10T07:49:02;1.30;;;1.17;;
76536;SDS011;65381;51.254;15.592;2023-06-10T07:51:29;5.55;;;1.67;;
76536;SDS011;65381;51.254;15.592;2023-06-10T07:53:57;19.52;;;4.30;;
76536;SDS011;65381;51.254;15.592;2023-06-10T07:56:25;1.13;;;1.02;;
76536;SDS011;65381;51.254;15.592;2023-06-10T07:58:53;2.75;;;2.33;;
76536;SDS011;65381;51.254;15.592;2023-06-10T08:01:22;2.33;;;1.63;;
76536;SDS011;65381;51.254;15.592;2023-06-10T08:03:51;0.90;;;0.77;;
76536;SDS011;65381;51.254;15.592;2023-06-10T08:06:19;0.95;;;0.70;;
76536;SDS011;65381;51.254;15.592;2023-06-10T08:08:48;6.25;;;3.83;;
76536;SDS011;65381;51.254;15.592;2023-06-10T08:11:16;5.13;;;2.00;;
76536;SDS011;65381;51.254;15.592;2023-06-10T08:13:44;0.60;;;0.20;;
76536;SDS011;65381;51.254;15.592;2023-06-10T08:16:12;1.35;;;1.13;;
76536;SDS011;65381;51.254;15.592;2023-06-10T08:18:40;1.17;;;0.65;;
76536;SDS011;65381;51.254;15.592;2023-06-10T08:21:08;0.68;;;0.68;;
76536;SDS011;65381;51.254;15.592;2023-06-10T08:23:37;5.55;;;4.30;;
76536;SDS011;65381;51.254;15.592;2023-06-10T08:26:04;1.17;;;1.08;;
76536;SDS011;65381;51.254;15.592;2023-06-10T08:28:32;10.90;;;4.88;;
76536;SDS011;65381;51.254;15.592;2023-06-10T08:31:00;6.40;;;3.13;;
76536;SDS011;65381;51.254;15.592;2023-06-10T08:33:28;2.58;;;2.13;;
76536;SDS011;65381;51.254;15.592;2023-06-10T08:35:56;3.22;;;2.15;;
76536;SDS011;65381;51.254;15.592;2023-06-10T08:38:24;7.72;;;4.53;;
76536;SDS011;65381;51.254;15.592;2023-06-10T08:40:52;6.15;;;4.32;;
76536;SDS011;65381;51.254;15.592;2023-06-10T08:43:37;3.92;;;3.28;;
76536;SDS011;65381;51.254;15.592;2023-06-10T08:46:12;10.00;;;4.18;;
76536;SDS011;65381;51.254;15.592;2023-06-10T08:48:43;11.02;;;5.97;;
76536;SDS011;65381;51.254;15.592;2023-06-10T08:51:12;6.22;;;2.95;;
76536;SDS011;65381;51.254;15.592;2023-06-10T08:53:46;12.35;;;3.67;;
76536;SDS011;65381;51.254;15.592;2023-06-10T08:56:20;5.90;;;3.88;;
76536;SDS011;65381;51.254;15.592;2023-06-10T08:58:50;5.85;;;3.78;;
76536;SDS011;65381;51.254;15.592;2023-06-10T09:01:20;4.47;;;1.65;;
76536;SDS011;65381;51.254;15.592;2023-06-10T09:03:48;3.20;;;1.58;;
76536;SDS011;65381;51.254;15.592;2023-06-10T09:06:17;4.93;;;2.22;;
76536;SDS011;65381;51.254;15.592;2023-06-10T09:08:46;3.70;;;2.60;;
76536;SDS011;65381;51.254;15.592;2023-06-10T09:11:17;6.90;;;3.72;;
76536;SDS011;65381;51.254;15.592;2023-06-10T09:13:53;2.65;;;2.17;;
76536;SDS011;65381;51.254;15.592;2023-06-10T09:16:21;4.82;;;2.85;;
76536;SDS011;65381;51.254;15.592;2023-06-10T09:18:49;4.03;;;2.97;;
76536;SDS011;65381;51.254;15.592;2023-06-10T09:21:22;5.20;;;2.58;;
76536;SDS011;65381;51.254;15.592;2023-06-10T09:23:51;7.57;;;4.13;;
76536;SDS011;65381;51.254;15.592;2023-06-10T09:26:19;7.28;;;4.43;;
76536;SDS011;65381;51.254;15.592;2023-06-10T09:28:48;2.42;;;1.63;;
76536;SDS011;65381;51.254;15.592;2023-06-10T09:31:17;3.28;;;2.65;;
76536;SDS011;65381;51.254;15.592;2023-06-10T09:33:49;12.88;;;4.40;;
76536;SDS011;65381;51.254;15.592;2023-06-10T09:36:23;2.35;;;1.83;;
76536;SDS011;65381;51.254;15.592;2023-06-10T09:38:51;2.65;;;2.42;;
76536;SDS011;65381;51.254;15.592;2023-06-10T09:41:19;6.57;;;3.22;;
76536;SDS011;65381;51.254;15.592;2023-06-10T09:43:47;2.95;;;2.28;;
76536;SDS011;65381;51.254;15.592;2023-06-10T09:46:16;6.05;;;2.53;;
76536;SDS011;65381;51.254;15.592;2023-06-10T09:48:46;2.03;;;1.85;;
76536;SDS011;65381;51.254;15.592;2023-06-10T09:51:15;2.55;;;1.23;;
76536;SDS011;65381;51.254;15.592;2023-06-10T09:53:52;2.47;;;1.60;;
76536;SDS011;65381;51.254;15.592;2023-06-10T09:56:21;1.83;;;1.25;;
76536;SDS011;65381;51.254;15.592;2023-06-10T09:58:59;6.05;;;3.83;;
76536;SDS011;65381;51.254;15.592;2023-06-10T10:01:27;2.10;;;1.15;;
76536;SDS011;65381;51.254;15.592;2023-06-10T10:03:55;5.38;;;2.42;;
76536;SDS011;65381;51.254;15.592;2023-06-10T10:06:23;1.77;;;1.27;;
76536;SDS011;65381;51.254;15.592;2023-06-10T10:08:52;6.53;;;4.28;;
76536;SDS011;65381;51.254;15.592;2023-06-10T10:11:20;1.85;;;1.17;;
76536;SDS011;65381;51.254;15.592;2023-06-10T10:13:50;1.40;;;1.30;;
76536;SDS011;65381;51.254;15.592;2023-06-10T10:16:20;2.42;;;2.22;;
76536;SDS011;65381;51.254;15.592;2023-06-10T10:19:01;1.50;;;1.40;;
76536;SDS011;65381;51.254;15.592;2023-06-10T10:21:43;3.22;;;1.88;;
76536;SDS011;65381;51.254;15.592;2023-06-10T10:24:21;3.30;;;1.40;;
76536;SDS011;65381;51.254;15.592;2023-06-10T10:26:53;4.65;;;2.03;;
76536;SDS011;65381;51.254;15.592;2023-06-10T10:29:30;3.60;;;2.67;;
76536;SDS011;65381;51.254;15.592;2023-06-10T10:32:10;3.45;;;2.50;;
76536;SDS011;65381;51.254;15.592;2023-06-10T10:37:27;5.70;;;2.10;;
76536;SDS011;65381;51.254;15.592;2023-06-10T10:39:55;4.63;;;3.10;;
76536;SDS011;65381;51.254;15.592;2023-06-10T10:42:25;1.50;;;1.35;;
76536;SDS011;65381;51.254;15.592;2023-06-10T10:44:55;2.45;;;0.95;;
76536;SDS011;65381;51.254;15.592;2023-06-10T10:47:25;4.20;;;2.42;;
76536;SDS011;65381;51.254;15.592;2023-06-10T10:49:58;2.90;;;1.83;;
76536;SDS011;65381;51.254;15.592;2023-06-10T10:52:28;1.88;;;1.67;;
76536;SDS011;65381;51.254;15.592;2023-06-10T10:55:20;1.50;;;1.40;;
76536;SDS011;65381;51.254;15.592;2023-06-10T10:58:04;31.42;;;3.58;;
76536;SDS011;65381;51.254;15.592;2023-06-10T11:00:37;6.93;;;4.07;;
76536;SDS011;65381;51.254;15.592;2023-06-10T11:03:14;3.65;;;2.05;;
76536;SDS011;65381;51.254;15.592;2023-06-10T11:05:45;1.92;;;1.33;;
76536;SDS011;65381;51.254;15.592;2023-06-10T11:11:17;1.70;;;1.60;;
76536;SDS011;65381;51.254;15.592;2023-06-10T11:16:41;0.98;;;0.75;;
76536;SDS011;65381;51.254;15.592;2023-06-10T11:19:10;1.73;;;1.63;;
76536;SDS011;65381;51.254;15.592;2023-06-10T11:22:07;5.35;;;2.30;;
76536;SDS011;65381;51.254;15.592;2023-06-10T11:24:37;3.28;;;2.97;;
76536;SDS011;65381;51.254;15.592;2023-06-10T11:27:15;7.70;;;5.07;;
76536;SDS011;65381;51.254;15.592;2023-06-10T11:32:34;4.90;;;3.78;;
76536;SDS011;65381;51.254;15.592;2023-06-10T11:35:06;5.15;;;3.00;;
76536;SDS011;65381;51.254;15.592;2023-06-10T11:37:36;5.85;;;2.97;;
76536;SDS011;65381;51.254;15.592;2023-06-10T11:40:04;2.97;;;2.40;;
76536;SDS011;65381;51.254;15.592;2023-06-10T11:42:38;6.05;;;3.55;;
76536;SDS011;65381;51.254;15.592;2023-06-10T11:45:07;6.03;;;4.28;;
76536;SDS011;65381;51.254;15.592;2023-06-10T11:47:37;6.10;;;3.28;;
76536;SDS011;65381;51.254;15.592;2023-06-10T11:50:05;3.22;;;2.58;;
76536;SDS011;65381;51.254;15.592;2023-06-10T11:52:34;3.15;;;2.67;;
76536;SDS011;65381;51.254;15.592;2023-06-10T11:55:07;9.13;;;4.13;;
76536;SDS011;65381;51.254;15.592;2023-06-10T11:57:37;5.75;;;3.08;;
76536;SDS011;65381;51.254;15.592;2023-06-10T12:00:05;4.50;;;3.67;;
76536;SDS011;65381;51.254;15.592;2023-06-10T12:02:37;7.43;;;3.03;;
76536;SDS011;65381;51.254;15.592;2023-06-10T12:05:14;3.72;;;1.77;;
76536;SDS011;65381;51.254;15.592;2023-06-10T12:07:43;5.25;;;4.18;;
76536;SDS011;65381;51.254;15.592;2023-06-10T12:10:10;3.70;;;2.78;;
76536;SDS011;65381;51.254;15.592;2023-06-10T12:12:45;6.03;;;2.92;;
76536;SDS011;65381;51.254;15.592;2023-06-10T12:15:22;5.60;;;4.10;;
76536;SDS011;65381;51.254;15.592;2023-06-10T12:17:52;4.55;;;2.40;;
76536;SDS011;65381;51.254;15.592;2023-06-10T12:20:24;2.60;;;2.00;;
76536;SDS011;65381;51.254;15.592;2023-06-10T12:22:55;4.82;;;2.63;;
76536;SDS011;65381;51.254;15.592;2023-06-10T12:25:26;5.57;;;3.22;;
76536;SDS011;65381;51.254;15.592;2023-06-10T12:27:57;1.23;;;1.13;;
76536;SDS011;65381;51.254;15.592;2023-06-10T12:30:26;5.07;;;3.28;;
76536;SDS011;65381;51.254;15.592;2023-06-10T12:32:54;6.30;;;4.07;;
76536;SDS011;65381;51.254;15.592;2023-06-10T12:35:24;1.90;;;1.65;;
76536;SDS011;65381;51.254;15.592;2023-06-10T12:40:30;4.10;;;2.95;;
76536;SDS011;65381;51.254;15.592;2023-06-10T12:43:00;1.58;;;1.23;;
76536;SDS011;65381;51.254;15.592;2023-06-10T12:45:30;2.65;;;1.27;;
76536;SDS011;65381;51.254;15.592;2023-06-10T12:48:16;5.72;;;2.83;;
76536;SDS011;65381;51.254;15.592;2023-06-10T12:50:53;2.63;;;1.52;;
76536;SDS011;65381;51.254;15.592;2023-06-10T12:53:22;3.85;;;2.00;;
76536;SDS011;65381;51.254;15.592;2023-06-10T12:55:51;3.25;;;2.03;;
76536;SDS011;65381;51.254;15.592;2023-06-10T12:58:20;2.08;;;1.65;;
76536;SDS011;65381;51.254;15.592;2023-06-10T13:00:50;0.50;;;0.28;;
76536;SDS011;65381;51.254;15.592;2023-06-10T13:03:21;3.50;;;1.42;;
76536;SDS011;65381;51.254;15.592;2023-06-10T13:05:49;7.47;;;3.53;;
76536;SDS011;65381;51.254;15.592;2023-06-10T13:08:17;2.78;;;1.55;;
76536;SDS011;65381;51.254;15.592;2023-06-10T13:10:45;4.97;;;2.65;;
76536;SDS011;65381;51.254;15.592;2023-06-10T13:13:13;3.90;;;2.40;;
76536;SDS011;65381;51.254;15.592;2023-06-10T13:15:41;4.05;;;2.67;;
76536;SDS011;65381;51.254;15.592;2023-06-10T13:18:10;5.22;;;2.38;;
76536;SDS011;65381;51.254;15.592;2023-06-10T13:20:39;0.93;;;0.80;;
76536;SDS011;65381;51.254;15.592;2023-06-10T13:23:07;5.43;;;1.33;;
76536;SDS011;65381;51.254;15.592;2023-06-10T13:25:35;11.77;;;2.70;;
76536;SDS011;65381;51.254;15.592;2023-06-10T13:28:03;0.85;;;0.85;;
76536;SDS011;65381;51.254;15.592;2023-06-10T13:30:30;4.35;;;2.88;;
76536;SDS011;65381;51.254;15.592;2023-06-10T13:32:58;1.50;;;0.68;;
76536;SDS011;65381;51.254;15.592;2023-06-10T13:35:26;4.72;;;2.63;;
76536;SDS011;65381;51.254;15.592;2023-06-10T13:37:54;2.78;;;1.83;;
76536;SDS011;65381;51.254;15.592;2023-06-10T13:40:22;3.40;;;2.67;;
76536;SDS011;65381;51.254;15.592;2023-06-10T13:42:50;3.60;;;1.40;;
76536;SDS011;65381;51.254;15.592;2023-06-10T13:45:20;2.55;;;1.55;;
76536;SDS011;65381;51.254;15.592;2023-06-10T13:47:47;3.45;;;2.25;;
76536;SDS011;65381;51.254;15.592;2023-06-10T13:50:16;0.65;;;0.60;;
76536;SDS011;65381;51.254;15.592;2023-06-10T13:52:43;3.65;;;2.42;;
76536;SDS011;65381;51.254;15.592;2023-06-10T13:55:12;11.40;;;2.22;;
76536;SDS011;65381;51.254;15.592;2023-06-10T13:57:40;3.00;;;2.03;;
76536;SDS011;65381;51.254;15.592;2023-06-10T14:00:08;2.10;;;0.90;;
76536;SDS011;65381;51.254;15.592;2023-06-10T14:02:45;2.20;;;1.42;;
76536;SDS011;65381;51.254;15.592;2023-06-10T14:05:14;3.20;;;1.92;;
76536;SDS011;65381;51.254;15.592;2023-06-10T14:07:42;3.22;;;1.50;;
76536;SDS011;65381;51.254;15.592;2023-06-10T14:10:10;4.32;;;2.35;;
76536;SDS011;65381;51.254;15.592;2023-06-10T14:12:38;7.70;;;2.35;;
76536;SDS011;65381;51.254;15.592;2023-06-10T14:15:06;3.30;;;1.77;;
76536;SDS011;65381;51.254;15.592;2023-06-10T14:17:35;1.70;;;1.27;;
76536;SDS011;65381;51.254;15.592;2023-06-10T14:20:03;2.38;;;1.23;;
76536;SDS011;65381;51.254;15.592;2023-06-10T14:22:32;3.00;;;2.17;;
76536;SDS011;65381;51.254;15.592;2023-06-10T14:25:00;0.80;;;0.60;;
76536;SDS011;65381;51.254;15.592;2023-06-10T14:27:28;4.05;;;2.40;;
76536;SDS011;65381;51.254;15.592;2023-06-10T14:29:56;2.45;;;1.38;;
76536;SDS011;65381;51.254;15.592;2023-06-10T14:32:27;5.00;;;2.67;;
76536;SDS011;65381;51.254;15.592;2023-06-10T14:34:56;0.80;;;0.80;;
76536;SDS011;65381;51.254;15.592;2023-06-10T14:37:24;1.63;;;1.35;;
76536;SDS011;65381;51.254;15.592;2023-06-10T14:39:52;9.63;;;2.22;;
76536;SDS011;65381;51.254;15.592;2023-06-10T14:42:20;10.23;;;1.25;;
76536;SDS011;65381;51.254;15.592;2023-06-10T14:44:48;2.85;;;1.98;;
76536;SDS011;65381;51.254;15.592;2023-06-10T14:47:16;0.25;;;0.10;;
76536;SDS011;65381;51.254;15.592;2023-06-10T14:49:44;6.53;;;1.35;;
76536;SDS011;65381;51.254;15.592;2023-06-10T14:52:12;4.95;;;1.40;;
76536;SDS011;65381;51.254;15.592;2023-06-10T14:54:40;2.25;;;1.75;;
76536;SDS011;65381;51.254;15.592;2023-06-10T14:57:08;1.00;;;0.75;;
76536;SDS011;65381;51.254;15.592;2023-06-10T14:59:37;0.98;;;0.68;;
76536;SDS011;65381;51.254;15.592;2023-06-10T15:02:05;6.80;;;2.20;;
76536;SDS011;65381;51.254;15.592;2023-06-10T15:04:33;3.25;;;1.88;;
76536;SDS011;65381;51.254;15.592;2023-06-10T15:07:02;2.67;;;2.08;;
76536;SDS011;65381;51.254;15.592;2023-06-10T15:09:30;2.08;;;0.50;;
76536;SDS011;65381;51.254;15.592;2023-06-10T15:11:58;0.35;;;0.15;;
76536;SDS011;65381;51.254;15.592;2023-06-10T15:14:27;3.88;;;2.40;;
76536;SDS011;65381;51.254;15.592;2023-06-10T15:16:55;2.35;;;1.70;;